Time;durP1;ratioP1;P1;durP2;ratioP2;P2;SDS_P1;SDS_P2;PMS_P1;PMS_P2;Temp;Humidity;BMP_temperature;BMP_pressure;BME280_temperature;BME280_humidity;BME280_pressure;Samples;Min_cycle;Max_cycle;Signal;HPM_P1;HPM_P2
2021/04/26 00:00:37;;;;;;;38.10;17.00;;;;;;;-1.24;70.96;98474.03;1747035;82;21157;-71
2021/04/26 00:03:05;;;;;;;33.98;16.55;;;;;;;-1.23;72.20;98478.33;1747006;81;21053;-72
2021/04/26 00:05:31;;;;;;;34.08;17.52;;;;;;;-1.25;70.82;98472.91;1747082;82;21582;-71
2021/04/26 00:07:57;;;;;;;35.80;17.77;;;;;;;-1.31;72.71;98465.17;1747095;82;21142;-71
2021/04/26 00:10:24;;;;;;;33.85;17.57;;;;;;;-1.31;71.56;98470.50;1747052;82;21268;-71
2021/04/26 00:12:50;;;;;;;35.05;16.05;;;;;;;-1.32;72.42;98467.52;1746954;81;21516;-71
2021/04/26 00:15:21;;;;;;;35.28;15.75;;;;;;;-1.28;70.53;98466.63;1747072;82;21176;-71
2021/04/26 00:17:47;;;;;;;36.35;18.50;;;;;;;-1.29;69.33;98474.28;1746580;82;21546;-71
2021/04/26 00:20:15;;;;;;;39.20;18.12;;;;;;;-1.48;72.28;98473.94;1747077;82;21113;-72
2021/04/26 00:22:41;;;;;;;32.53;18.00;;;;;;;-1.46;69.08;98486.52;1747119;81;21207;-71
2021/04/26 00:25:09;;;;;;;38.75;18.23;;;;;;;-1.56;71.27;98482.55;1747173;82;21184;-72
2021/04/26 00:27:35;;;;;;;41.88;18.80;;;;;;;-1.55;71.44;98478.88;1746984;81;21420;-71
2021/04/26 00:30:04;;;;;;;23.87;12.18;;;;;;;-1.53;69.51;98474.22;1747057;81;21134;-71
2021/04/26 00:32:30;;;;;;;;;;;;;;;-1.68;72.24;98475.61;1749699;82;21412;-71
2021/04/26 00:34:57;;;;;;;35.38;14.70;;;;;;;-1.67;72.00;98480.41;1747244;82;21255;-72
2021/04/26 00:37:23;;;;;;;27.02;12.75;;;;;;;-1.59;69.33;98488.26;1747194;82;21475;-71
2021/04/26 00:39:49;;;;;;;35.45;17.27;;;;;;;-1.60;69.85;98483.96;1747247;82;21157;-72
2021/04/26 00:42:15;;;;;;;29.72;14.18;;;;;;;-1.66;73.68;98481.55;1747126;82;21373;-71
2021/04/26 00:44:41;;;;;;;33.25;16.97;;;;;;;-1.58;70.40;98487.24;1747329;82;21110;-72
2021/04/26 00:47:08;;;;;;;32.05;14.45;;;;;;;-1.56;72.13;98479.39;1747205;82;21573;-72
2021/04/26 00:49:34;;;;;;;43.98;17.70;;;;;;;-1.54;72.05;98478.71;1736307;80;21065;-71
2021/04/26 00:52:00;;;;;;;40.45;19.70;;;;;;;-1.52;70.13;98481.17;1735850;82;21141;-71
2021/04/26 00:54:26;;;;;;;32.50;14.70;;;;;;;-1.60;70.51;98475.98;1735835;82;21461;-71
2021/04/26 00:56:53;;;;;;;34.60;16.05;;;;;;;-1.63;70.14;98485.14;1735951;82;21022;-71
2021/04/26 00:59:19;;;;;;;29.98;15.55;;;;;;;-1.67;70.43;98481.23;1735816;82;21202;-71
2021/04/26 01:01:45;;;;;;;38.63;15.43;;;;;;;-1.62;71.24;98484.63;1735768;82;21027;-71
2021/04/26 01:04:11;;;;;;;28.60;12.98;;;;;;;-1.65;70.05;98487.17;1716942;82;21082;-71
2021/04/26 01:06:38;;;;;;;29.77;14.35;;;;;;;-1.67;70.73;98483.07;1735816;82;21105;-71
2021/04/26 01:09:04;;;;;;;31.35;14.05;;;;;;;-1.67;73.12;98487.06;1735834;82;21026;-71
2021/04/26 01:12:06;;;;;;;25.80;14.50;;;;;;;-1.68;73.09;98489.41;1735923;82;21527;-71
2021/04/26 01:14:38;;;;;;;25.88;13.32;;;;;;;-1.67;71.88;98493.70;1735415;82;21055;-72
2021/04/26 01:17:09;;;;;;;28.12;15.00;;;;;;;-1.68;72.18;98488.08;1735850;82;21071;-71
2021/04/26 01:20:05;;;;;;;30.90;15.50;;;;;;;-1.71;72.05;98490.58;1735855;82;21039;-71
2021/04/26 01:23:01;;;;;;;28.40;12.58;;;;;;;-1.77;73.77;98486.05;1735806;82;21027;-71
2021/04/26 01:25:27;;;;;;;25.72;10.98;;;;;;;-1.76;71.08;98481.05;1735921;82;21308;-72
2021/04/26 01:28:16;;;;;;;24.85;12.50;;;;;;;-1.88;71.32;98482.55;1716835;82;21055;-72
2021/04/26 01:31:13;;;;;;;21.73;11.55;;;;;;;-1.96;73.85;98486.68;1735924;82;21089;-71
2021/04/26 01:33:45;;;;;;;28.57;13.80;;;;;;;-1.92;71.66;98482.11;1735791;82;21173;-71
2021/04/26 01:36:14;;;;;;;29.92;13.88;;;;;;;-2.00;75.16;98471.61;1735855;82;21094;-71
2021/04/26 01:38:41;;;;;;;28.07;13.25;;;;;;;-1.97;75.21;98469.89;1735776;82;21497;-72
2021/04/26 01:41:08;;;;;;;30.43;14.40;;;;;;;-1.95;74.74;98463.91;1716903;82;21538;-72
2021/04/26 01:43:34;;;;;;;37.45;15.93;;;;;;;-1.96;74.56;98469.41;1735760;82;21429;-72
2021/04/26 01:46:03;;;;;;;27.67;12.50;;;;;;;-1.91;74.69;98472.30;1735790;82;21070;-72
2021/04/26 01:48:30;;;;;;;33.28;15.70;;;;;;;-1.91;73.29;98471.80;1735809;80;21142;-72
2021/04/26 01:50:57;;;;;;;30.55;14.98;;;;;;;-1.99;74.15;98466.61;1716753;82;21633;-72
2021/04/26 01:53:23;;;;;;;34.03;13.88;;;;;;;-1.99;74.12;98467.93;1735783;82;21070;-72
2021/04/26 01:55:49;;;;;;;23.65;13.13;;;;;;;-1.92;73.51;98465.35;1735867;82;21153;-72
2021/04/26 01:58:15;;;;;;;23.18;11.85;;;;;;;-1.90;72.23;98465.98;1735728;82;21046;-72
2021/04/26 02:00:42;;;;;;;30.45;13.88;;;;;;;-1.94;72.03;98464.22;1735799;82;21157;-72
2021/04/26 02:03:08;;;;;;;26.60;13.83;;;;;;;-2.01;71.57;98458.83;1716826;82;21499;-72
2021/04/26 02:08:13;;;;;;;31.85;17.50;;;;;;;-2.14;74.53;98460.00;1868620;76;27570;-71
2021/04/26 02:10:40;;;;;;;31.42;14.18;;;;;;;-2.02;73.69;98465.66;1851960;77;21461;-71
2021/04/26 02:13:06;;;;;;;29.12;13.83;;;;;;;-2.10;72.53;98457.31;1819572;78;21254;-71
2021/04/26 02:15:33;;;;;;;31.23;14.33;;;;;;;-2.13;72.25;98459.02;1789994;78;21114;-72
2021/04/26 02:17:59;;;;;;;35.92;15.30;;;;;;;-2.17;72.93;98452.42;1819393;77;21407;-72
2021/04/26 02:20:25;;;;;;;28.70;15.98;;;;;;;-2.19;72.22;98454.96;1789990;78;21578;-72
2021/04/26 02:22:52;;;;;;;29.82;13.83;;;;;;;-2.28;73.83;98455.07;1819433;77;21008;-72
2021/04/26 02:25:18;;;;;;;28.83;14.45;;;;;;;-2.24;72.79;98447.55;1819419;78;21454;-72
2021/04/26 02:27:44;;;;;;;25.25;13.32;;;;;;;-2.27;73.05;98442.11;1819401;77;20979;-71
2021/04/26 02:30:12;;;;;;;27.02;14.13;;;;;;;-2.42;74.85;98449.28;1819397;78;21091;-72
2021/04/26 02:33:04;;;;;;;27.62;13.65;;;;;;;-2.41;73.95;98444.80;1819384;77;21024;-71
2021/04/26 02:35:38;;;;;;;23.07;12.18;;;;;;;-2.44;75.58;98437.22;1819586;78;21448;-71
2021/04/26 02:38:08;;;;;;;26.65;12.30;;;;;;;-2.51;75.77;98441.11;1819264;78;21427;-71
2021/04/26 02:40:46;;;;;;;25.02;12.28;;;;;;;-2.49;72.87;98433.78;1818288;78;20987;-72
2021/04/26 02:43:13;;;;;;;27.48;11.43;;;;;;;-2.53;72.54;98430.37;1819713;78;21566;-72
2021/04/26 02:45:45;;;;;;;21.25;12.58;;;;;;;-2.59;73.24;98435.41;1819359;77;21090;-72
2021/04/26 02:48:11;;;;;;;26.27;11.97;;;;;;;-2.62;73.06;98438.44;1818651;78;21016;-72
2021/04/26 02:50:37;;;;;;;24.57;12.05;;;;;;;-2.60;73.34;98435.59;1819413;77;21539;-72
2021/04/26 02:53:04;;;;;;;22.48;10.40;;;;;;;-2.60;72.09;98439.07;1819292;78;21118;-72
2021/04/26 02:55:30;;;;;;;32.23;14.03;;;;;;;-2.64;73.05;98441.79;1819400;78;21532;-72
2021/04/26 02:57:56;;;;;;;22.93;11.73;;;;;;;-2.63;75.94;98443.94;1763990;78;21521;-72
2021/04/26 03:00:23;;;;;;;21.40;11.25;;;;;;;-2.60;75.33;98444.38;1819512;78;21592;-72
2021/04/26 03:02:50;;;;;;;33.58;12.20;;;;;;;-2.58;75.21;98444.19;1790078;78;21972;-72
2021/04/26 03:05:17;;;;;;;29.42;12.60;;;;;;;-2.55;73.92;98445.16;1819422;78;21094;-72
2021/04/26 03:07:43;;;;;;;26.97;12.33;;;;;;;-2.60;72.81;98440.39;1819313;77;21178;-72
2021/04/26 03:10:12;;;;;;;24.43;13.05;;;;;;;-2.67;74.26;98442.14;1819448;78;21550;-72
2021/04/26 03:12:40;;;;;;;23.15;11.60;;;;;;;-2.67;73.94;98445.30;1789800;78;21011;-72
2021/04/26 03:15:09;;;;;;;25.95;11.80;;;;;;;-2.65;72.78;98445.92;1819544;78;21257;-72
2021/04/26 03:17:39;;;;;;;26.07;11.93;;;;;;;-2.75;73.34;98439.59;1819280;77;21090;-72
2021/04/26 03:20:07;;;;;;;46.28;17.10;;;;;;;-2.74;74.73;98442.55;1789331;79;21098;-71
2021/04/26 03:22:33;;;;;;;32.78;13.58;;;;;;;-2.75;75.05;98436.11;1818705;77;21531;-71
2021/04/26 03:24:59;;;;;;;39.98;18.67;;;;;;;-2.77;72.87;98432.83;1818889;79;21531;-71
2021/04/26 03:27:25;;;;;;;48.58;21.62;;;;;;;-2.80;74.84;98445.14;1818807;77;22106;-71
2021/04/26 03:29:52;;;;;;;68.62;32.58;;;;;;;-2.84;76.90;98448.65;1818718;79;21133;-71
2021/04/26 03:32:18;;;;;;;36.68;19.42;;;;;;;-2.79;76.05;98447.61;1818806;77;21015;-71
2021/04/26 03:34:45;;;;;;;44.33;24.25;;;;;;;-2.73;74.89;98448.70;1818809;79;21156;-71
2021/04/26 03:37:16;;;;;;;34.35;17.92;;;;;;;-2.83;76.86;98454.27;1818797;77;21067;-71
2021/04/26 03:39:45;;;;;;;33.42;17.15;;;;;;;-2.74;74.48;98451.84;1818086;79;21483;-72
2021/04/26 03:42:19;;;;;;;40.75;19.77;;;;;;;-2.79;73.39;98459.55;1818656;77;21094;-71
2021/04/26 03:44:47;;;;;;;30.45;16.60;;;;;;;-2.84;75.12;98463.23;1818834;78;21106;-71
2021/04/26 03:47:13;;;;;;;31.27;15.38;;;;;;;-2.76;75.59;98463.65;1818668;77;21138;-71
2021/04/26 03:49:39;;;;;;;40.78;18.05;;;;;;;-2.72;74.30;98467.09;1818790;79;21114;-71
2021/04/26 03:52:06;;;;;;;42.40;16.32;;;;;;;-2.82;75.74;98467.84;1818736;77;21192;-71
2021/04/26 03:54:32;;;;;;;36.93;17.85;;;;;;;-2.79;74.11;98463.52;1818692;79;21543;-72
2021/04/26 03:56:58;;;;;;;34.90;16.75;;;;;;;-2.80;73.19;98465.03;1818790;77;21484;-72
2021/04/26 03:59:24;;;;;;;30.77;15.25;;;;;;;-2.79;73.59;98470.16;1818776;79;21090;-71
2021/04/26 04:01:51;;;;;;;40.45;21.85;;;;;;;-2.80;73.14;98467.19;1818840;77;21380;-71
2021/04/26 04:04:18;;;;;;;39.92;20.48;;;;;;;-2.80;74.97;98469.84;1818734;78;22093;-72
2021/04/26 04:06:44;;;;;;;45.45;21.12;;;;;;;-2.77;73.31;98472.11;1818622;77;21150;-71
2021/04/26 04:09:10;;;;;;;52.50;25.05;;;;;;;-2.79;72.94;98477.29;1819318;78;21551;-72
2021/04/26 04:11:36;;;;;;;60.70;23.90;;;;;;;-2.82;73.25;98473.16;1819406;77;21581;-72
2021/04/26 04:14:03;;;;;;;43.17;21.42;;;;;;;-2.78;75.25;98472.30;1819347;78;21150;-71
2021/04/26 04:16:29;;;;;;;49.83;22.98;;;;;;;-2.65;73.43;98479.95;1819329;77;21193;-72
2021/04/26 04:18:56;;;;;;;28.98;14.15;;;;;;;-2.56;73.60;98485.47;1819365;78;21152;-71
2021/04/26 04:21:22;;;;;;;32.70;17.57;;;;;;;-2.40;72.92;98485.74;1819250;77;21031;-72
2021/04/26 04:23:49;;;;;;;41.98;17.10;;;;;;;-2.33;73.98;98482.67;1819390;78;21590;-72
2021/04/26 04:26:15;;;;;;;61.53;29.00;;;;;;;-2.17;73.95;98492.25;1819381;77;21106;-71
2021/04/26 04:28:41;;;;;;;63.63;29.80;;;;;;;-2.12;74.84;98490.38;1819301;78;21198;-72
2021/04/26 04:31:07;;;;;;;66.00;27.65;;;;;;;-1.93;74.21;98494.26;1819286;77;20893;-71
2021/04/26 04:33:33;;;;;;;56.33;25.12;;;;;;;-1.81;73.75;98492.73;1819330;78;21157;-72
2021/04/26 04:36:00;;;;;;;46.33;20.68;;;;;;;-1.67;74.01;98501.16;1819285;77;21166;-72
2021/04/26 04:38:26;;;;;;;50.25;21.62;;;;;;;-1.63;73.55;98498.94;1819307;78;21067;-72
2021/04/26 04:40:55;;;;;;;42.80;19.73;;;;;;;-1.54;73.21;98489.82;1819288;77;21341;-71
2021/04/26 04:43:21;;;;;;;52.65;21.23;;;;;;;-1.46;73.48;98492.34;1818650;78;21090;-72
2021/04/26 04:45:47;;;;;;;40.58;17.42;;;;;;;-1.35;72.77;98495.84;1819295;77;21579;-72
2021/04/26 04:48:14;;;;;;;37.20;16.67;;;;;;;-1.27;72.27;98486.91;1819219;78;21122;-72
2021/04/26 04:50:40;;;;;;;46.00;17.73;;;;;;;-1.19;71.95;98496.07;1819369;77;21491;-71
2021/04/26 04:53:06;;;;;;;43.35;17.82;;;;;;;-1.18;72.15;98490.55;1819352;78;21954;-72
2021/04/26 04:55:33;;;;;;;37.60;21.45;;;;;;;-1.14;72.41;98488.32;1819233;78;21587;-72
2021/04/26 04:57:59;;;;;;;36.98;17.52;;;;;;;-1.08;72.54;98492.05;1819296;77;21503;-72
2021/04/26 05:00:25;;;;;;;36.35;17.15;;;;;;;-1.05;72.53;98492.48;1819282;78;21004;-72
2021/04/26 05:02:51;;;;;;;31.95;14.23;;;;;;;-1.00;71.65;98496.72;1819275;77;21015;-72
2021/04/26 05:05:18;;;;;;;36.80;15.23;;;;;;;-1.07;71.87;98501.67;1819264;78;21122;-72
2021/04/26 05:07:44;;;;;;;38.00;15.75;;;;;;;-1.01;71.70;98505.72;1818876;77;21130;-71
2021/04/26 05:10:10;;;;;;;33.55;14.98;;;;;;;-0.95;71.44;98505.44;1818766;79;21531;-72
2021/04/26 05:12:37;;;;;;;35.00;18.07;;;;;;;-0.82;72.26;98502.05;1818659;77;21539;-72
2021/04/26 05:15:03;;;;;;;43.78;16.80;;;;;;;-0.74;70.73;98495.25;1818715;78;21157;-72
2021/04/26 05:17:31;;;;;;;31.80;14.30;;;;;;;-0.71;70.53;98501.50;1818608;77;21247;-72
2021/04/26 05:19:58;;;;;;;32.00;15.03;;;;;;;-0.72;70.50;98499.86;1818630;79;21499;-72
2021/04/26 05:22:25;;;;;;;31.23;16.77;;;;;;;-0.56;70.90;98496.88;1818642;77;21141;-72
2021/04/26 05:24:51;;;;;;;45.25;17.25;;;;;;;-0.34;70.54;98497.11;1818767;78;21086;-72
2021/04/26 05:27:17;;;;;;;44.38;24.35;;;;;;;-0.26;70.73;98500.59;1818718;77;21003;-72
2021/04/26 05:29:43;;;;;;;75.47;30.95;;;;;;;-0.07;70.50;98491.37;1818739;78;21272;-72
2021/04/26 05:32:09;;;;;;;67.17;34.00;;;;;;;0.11;70.71;98492.13;1818525;77;21170;-72
2021/04/26 05:34:36;;;;;;;56.85;27.48;;;;;;;0.18;69.81;98486.83;1789075;79;21555;-71
2021/04/26 05:37:02;;;;;;;55.90;25.62;;;;;;;0.31;69.79;98489.50;1818657;77;21413;-71
2021/04/26 05:39:28;;;;;;;41.18;19.77;;;;;;;0.48;69.46;98489.94;1818700;78;21150;-72
2021/04/26 05:41:54;;;;;;;35.60;18.73;;;;;;;0.66;68.75;98481.33;1818709;77;21196;-72
2021/04/26 05:44:20;;;;;;;30.70;14.45;;;;;;;0.73;68.70;98478.16;1818613;79;21193;-72
2021/04/26 05:46:46;;;;;;;27.67;13.43;;;;;;;0.95;68.97;98475.59;1818640;77;21102;-72
2021/04/26 05:49:12;;;;;;;25.08;13.30;;;;;;;1.16;67.76;98471.03;1818615;79;21774;-72
2021/04/26 05:51:39;;;;;;;35.78;14.98;;;;;;;1.25;66.99;98463.92;1818746;77;21468;-72
2021/04/26 05:54:06;;;;;;;40.33;16.05;;;;;;;1.41;67.38;98463.48;1818665;78;22162;-72
2021/04/26 05:56:32;;;;;;;36.75;15.38;;;;;;;1.65;67.74;98459.81;1818607;77;21022;-72
2021/04/26 05:58:58;;;;;;;50.05;25.55;;;;;;;1.87;67.04;98453.63;1818657;78;21090;-72
2021/04/26 06:01:24;;;;;;;33.42;16.45;;;;;;;2.04;67.61;98453.95;1818756;77;21082;-72
2021/04/26 06:03:50;;;;;;;137.77;27.27;;;;;;;2.19;66.87;98451.81;1818676;79;21015;-72
2021/04/26 06:06:16;;;;;;;32.63;18.27;;;;;;;2.37;66.79;98450.56;1818662;77;21227;-72
2021/04/26 06:08:42;;;;;;;34.43;16.48;;;;;;;2.55;66.34;98444.46;1818466;79;21098;-72
2021/04/26 06:11:09;;;;;;;33.30;15.08;;;;;;;2.69;66.16;98439.83;1818699;77;21043;-72
2021/04/26 06:13:35;;;;;;;33.10;15.35;;;;;;;2.93;65.59;98440.34;1818729;78;21087;-72
2021/04/26 06:16:01;;;;;;;39.10;21.87;;;;;;;3.07;64.54;98434.32;1818657;77;21393;-72
2021/04/26 06:18:27;;;;;;;40.67;18.62;;;;;;;3.18;64.59;98433.61;1818729;79;22017;-72
2021/04/26 06:20:54;;;;;;;33.30;17.20;;;;;;;3.43;64.16;98434.08;1818606;77;21126;-72
2021/04/26 06:23:20;;;;;;;36.28;18.05;;;;;;;3.63;62.47;98436.80;1818612;79;21023;-72
2021/04/26 06:25:46;;;;;;;33.95;14.98;;;;;;;3.85;63.17;98437.16;1818643;77;21563;-72
2021/04/26 06:28:13;;;;;;;47.38;17.15;;;;;;;4.11;60.59;98434.64;1818639;79;21022;-71
2021/04/26 06:30:41;;;;;;;31.82;19.10;;;;;;;4.37;62.27;98436.13;1818613;77;21102;-72
2021/04/26 06:33:09;;;;;;;37.53;18.25;;;;;;;4.50;61.13;98428.38;1818565;78;21512;-72
2021/04/26 06:35:35;;;;;;;37.33;19.20;;;;;;;4.64;60.85;98435.19;1818648;79;21074;-72
2021/04/26 06:38:01;;;;;;;30.17;16.67;;;;;;;4.80;61.07;98429.66;1818611;79;21019;-72
2021/04/26 06:40:27;;;;;;;27.98;12.88;;;;;;;5.14;60.36;98429.91;1818671;79;21114;-72
2021/04/26 06:42:54;;;;;;;20.85;12.78;;;;;;;5.70;57.60;98429.73;1818529;77;21185;-72
2021/04/26 06:45:23;;;;;;;21.55;10.63;;;;;;;6.09;52.53;98423.55;1818561;79;21102;-72
2021/04/26 06:47:51;;;;;;;14.05;7.97;;;;;;;6.53;50.85;98422.98;1818518;77;21154;-71
2021/04/26 06:50:18;;;;;;;12.35;6.80;;;;;;;6.72;50.18;98420.33;1817776;79;21078;-71
2021/04/26 06:52:46;;;;;;;16.50;7.30;;;;;;;6.75;43.78;98427.91;1818602;77;21059;-72
2021/04/26 06:55:13;;;;;;;16.17;8.17;;;;;;;6.58;45.15;98425.73;1819007;79;21242;-72
2021/04/26 06:57:39;;;;;;;12.68;6.53;;;;;;;6.60;42.16;98428.49;1818761;77;21199;-72
2021/04/26 07:00:06;;;;;;;9.28;4.62;;;;;;;6.71;42.65;98426.25;1818822;79;21579;-72
2021/04/26 07:02:33;;;;;;;10.45;5.00;;;;;;;6.75;42.69;98434.64;1818713;77;21520;-72
2021/04/26 07:05:00;;;;;;;14.83;7.15;;;;;;;6.92;42.20;98430.09;1818784;79;21094;-71
2021/04/26 07:07:26;;;;;;;18.50;7.28;;;;;;;7.18;38.08;98431.80;1818331;77;21183;-71
2021/04/26 07:09:53;;;;;;;19.55;10.30;;;;;;;7.51;36.36;98424.98;1813904;79;21063;-71
2021/04/26 07:12:19;;;;;;;19.73;10.48;;;;;;;8.00;38.36;98417.48;1805842;77;21409;-71
2021/04/26 07:14:45;;;;;;;15.35;6.75;;;;;;;8.18;37.06;98414.43;1813918;79;21146;-71
2021/04/26 07:17:12;;;;;;;11.08;6.75;;;;;;;8.66;34.27;98418.98;1813907;78;21004;-72
2021/04/26 07:19:38;;;;;;;10.35;5.60;;;;;;;8.97;35.69;98415.14;1788272;78;21177;-72
2021/04/26 07:22:04;;;;;;;7.70;5.75;;;;;;;9.66;37.57;98420.98;1759974;81;21104;-72
2021/04/26 07:24:30;;;;;;;7.87;5.50;;;;;;;10.03;34.01;98416.78;1760000;80;21427;-72
2021/04/26 07:26:56;;;;;;;10.15;5.30;;;;;;;10.34;32.67;98425.30;1760077;81;21532;-72
2021/04/26 07:29:23;;;;;;;11.85;6.00;;;;;;;9.90;32.90;98420.24;1759961;81;21588;-73
2021/04/26 07:31:49;;;;;;;8.70;5.33;;;;;;;9.86;32.05;98420.52;1759935;81;22114;-72
2021/04/26 07:34:15;;;;;;;8.93;5.22;;;;;;;10.72;34.36;98418.55;1760007;81;21127;-72
2021/04/26 07:36:41;;;;;;;9.75;5.62;;;;;;;10.64;30.62;98416.92;1759786;80;21067;-72
2021/04/26 07:39:07;;;;;;;7.15;4.47;;;;;;;10.61;32.22;98420.99;1759848;81;21135;-72
2021/04/26 07:41:34;;;;;;;9.08;5.28;;;;;;;11.09;31.62;98417.44;1760043;81;21446;-72
2021/04/26 07:44:00;;;;;;;11.55;5.62;;;;;;;11.73;32.71;98415.39;1759991;81;21989;-73
2021/04/26 07:46:26;;;;;;;10.32;6.00;;;;;;;11.85;31.91;98411.02;1788933;79;21110;-72
2021/04/26 07:48:53;;;;;;;14.98;8.28;;;;;;;11.26;30.69;98412.53;1813811;79;21114;-72
2021/04/26 07:51:19;;;;;;;18.70;12.18;;;;;;;11.22;30.18;98414.18;1813946;79;21119;-72
2021/04/26 07:53:45;;;;;;;11.10;7.00;;;;;;;10.60;32.19;98419.37;1813715;79;21130;-73
2021/04/26 07:56:11;;;;;;;14.00;5.35;;;;;;;11.39;31.90;98415.23;1813975;79;21186;-73
2021/04/26 07:58:37;;;;;;;9.10;4.17;;;;;;;12.11;30.20;98409.80;1813908;78;21504;-73
2021/04/26 08:01:03;;;;;;;7.70;3.92;;;;;;;12.43;30.59;98405.81;1813484;79;21440;-73
2021/04/26 08:03:30;;;;;;;7.72;3.67;;;;;;;12.42;28.03;98410.99;1813115;78;21428;-73
2021/04/26 08:05:56;;;;;;;8.23;4.33;;;;;;;13.89;30.97;98406.63;1788001;79;21694;-73
2021/04/26 08:08:23;;;;;;;7.08;4.25;;;;;;;13.41;26.37;98406.63;1814879;77;21936;-73
2021/04/26 08:10:50;;;;;;;11.65;7.37;;;;;;;12.68;27.05;98408.35;1818595;78;21138;-73
2021/04/26 08:13:16;;;;;;;8.10;4.90;;;;;;;13.73;26.91;98404.08;1818795;78;21082;-73
2021/04/26 08:15:43;;;;;;;10.18;5.40;;;;;;;13.36;26.76;98396.62;1818915;78;21456;-73
2021/04/26 08:18:09;;;;;;;6.62;3.90;;;;;;;14.30;26.14;98404.98;1819122;78;21394;-73
2021/04/26 08:20:37;;;;;;;5.58;3.30;;;;;;;15.24;26.42;98392.58;1819342;78;21237;-73
2021/04/26 08:23:03;;;;;;;6.72;3.08;;;;;;;13.77;26.63;98396.16;1819238;78;21181;-73
2021/04/26 08:25:30;;;;;;;7.55;4.20;;;;;;;12.46;26.47;98395.73;1819341;78;21083;-74
2021/04/26 08:27:57;;;;;;;8.30;3.35;;;;;;;13.68;27.67;98393.82;1818832;78;21134;-74
2021/04/26 08:30:23;;;;;;;10.82;4.62;;;;;;;12.00;29.04;98389.78;1819344;78;21527;-74
2021/04/26 08:32:50;;;;;;;6.83;4.30;;;;;;;10.68;30.28;98394.95;1819340;78;22006;-74
2021/04/26 08:35:16;;;;;;;9.53;5.05;;;;;;;9.86;31.75;98396.16;1819343;78;21479;-74
2021/04/26 08:37:42;;;;;;;12.10;4.40;;;;;;;12.38;30.24;98383.55;1819283;78;21039;-74
2021/04/26 08:40:09;;;;;;;8.13;4.40;;;;;;;14.00;28.92;98383.03;1819221;78;21067;-73
2021/04/26 08:42:35;;;;;;;8.40;3.20;;;;;;;14.99;27.06;98387.56;1819395;78;21428;-74
2021/04/26 08:45:02;;;;;;;8.55;4.90;;;;;;;15.81;25.85;98385.51;1819364;78;22004;-73
2021/04/26 08:47:30;;;;;;;9.55;4.58;;;;;;;13.65;25.06;98388.38;1819270;78;21047;-73
2021/04/26 08:49:58;;;;;;;10.30;5.53;;;;;;;11.34;29.45;98389.45;1794507;78;21090;-73
2021/04/26 08:52:25;;;;;;;4.85;3.58;;;;;;;10.51;30.46;98394.41;1819277;78;21138;-73
2021/04/26 08:54:52;;;;;;;4.83;3.77;;;;;;;11.39;29.99;98388.64;1819278;78;21161;-73
2021/04/26 08:57:19;;;;;;;9.20;4.67;;;;;;;11.69;28.24;98383.63;1819161;78;21162;-74
2021/04/26 08:59:45;;;;;;;11.65;5.72;;;;;;;11.15;29.85;98388.42;1819310;78;21091;-73
2021/04/26 09:02:12;;;;;;;14.30;9.08;;;;;;;10.86;30.47;98397.69;1819264;78;21392;-73
2021/04/26 09:04:48;;;;;;;8.18;3.67;;;;;;;10.12;31.87;98396.23;1819218;78;21070;-73
2021/04/26 09:07:15;;;;;;;6.97;4.22;;;;;;;9.30;33.22;98397.25;1795845;78;21102;-72
2021/04/26 09:09:49;;;;;;;6.08;4.58;;;;;;;8.75;33.69;98399.05;1818712;77;21567;-73
2021/04/26 09:12:28;;;;;;;10.28;4.83;;;;;;;9.70;33.44;98399.87;1818618;78;21102;-73
2021/04/26 09:14:58;;;;;;;7.25;4.50;;;;;;;9.28;32.85;98391.29;1818748;79;21114;-72
2021/04/26 09:17:34;;;;;;;8.53;4.60;;;;;;;11.57;30.10;98381.25;1818585;78;21146;-73
2021/04/26 09:20:18;;;;;;;6.78;4.10;;;;;;;12.63;28.22;98385.82;1818684;78;21063;-74
2021/04/26 09:22:57;;;;;;;6.55;3.50;;;;;;;12.58;27.50;98382.61;1818195;79;21479;-73
2021/04/26 09:25:34;;;;;;;7.75;4.05;;;;;;;11.37;29.09;98375.36;1818716;79;21142;-72
2021/04/26 09:28:12;;;;;;;7.17;4.28;;;;;;;11.80;27.23;98378.48;1818641;79;21062;-73
2021/04/26 09:30:51;;;;;;;10.17;4.77;;;;;;;14.27;24.77;98374.23;1818937;78;21137;-73
2021/04/26 09:33:29;;;;;;;6.03;3.72;;;;;;;12.40;27.28;98375.14;1818703;78;21121;-73
2021/04/26 09:36:18;;;;;;;7.87;4.55;;;;;;;11.09;27.00;98370.52;1818880;79;21146;-73
2021/04/26 09:38:51;;;;;;;7.42;4.37;;;;;;;12.92;25.69;98369.55;1768365;79;21481;-73
2021/04/26 09:41:28;;;;;;;7.62;5.25;;;;;;;15.43;25.54;98360.28;1818753;78;21099;-73
2021/04/26 09:44:03;;;;;;;7.55;5.05;;;;;;;16.30;23.83;98360.64;1818621;79;21090;-74
2021/04/26 09:46:46;;;;;;;7.80;5.90;;;;;;;17.37;21.87;98358.00;1812110;79;21023;-74
2021/04/26 09:49:21;;;;;;;7.92;4.15;;;;;;;16.32;21.40;98353.77;1809702;79;22310;-72
2021/04/26 09:51:53;;;;;;;8.73;3.45;;;;;;;13.75;24.39;98354.77;1818624;78;21081;-72
2021/04/26 09:54:39;;;;;;;5.90;3.92;;;;;;;12.75;26.00;98359.09;1818652;78;21011;-73
2021/04/26 09:57:05;;;;;;;12.40;5.45;;;;;;;11.42;28.03;98367.73;1818616;78;21518;-74
2021/04/26 09:59:32;;;;;;;9.35;4.80;;;;;;;10.30;30.49;98363.78;1818709;78;21439;-74
2021/04/26 10:01:58;;;;;;;9.38;5.30;;;;;;;10.29;30.30;98365.69;1818635;79;21491;-74
2021/04/26 10:04:24;;;;;;;12.85;6.35;;;;;;;12.37;27.75;98352.04;1818569;79;21504;-74
2021/04/26 10:06:51;;;;;;;68.37;37.28;;;;;;;14.08;26.39;98342.06;1818706;78;21016;-74
2021/04/26 10:09:17;;;;;;;13.98;7.60;;;;;;;16.35;24.74;98342.20;1818863;77;21098;-74
2021/04/26 10:11:43;;;;;;;11.38;5.10;;;;;;;16.87;22.26;98346.70;1819308;78;21158;-74
2021/04/26 10:14:14;;;;;;;10.90;5.85;;;;;;;17.84;21.51;98343.27;1819184;78;22065;-74
2021/04/26 10:17:05;;;;;;;8.53;5.28;;;;;;;15.27;23.16;98343.38;1819257;78;21527;-74
2021/04/26 10:19:47;;;;;;;9.83;7.37;;;;;;;12.36;26.44;98342.27;1819183;78;21050;-72
2021/04/26 10:22:13;;;;;;;10.43;6.17;;;;;;;11.37;28.47;98337.38;1819190;78;21133;-73
2021/04/26 10:24:55;;;;;;;13.32;6.47;;;;;;;10.97;29.65;98335.03;1819228;78;21007;-73
2021/04/26 10:27:39;;;;;;;9.10;5.95;;;;;;;10.80;29.78;98334.52;1819313;78;21266;-72
2021/04/26 10:30:13;;;;;;;10.10;6.60;;;;;;;10.02;31.12;98341.52;1819358;78;21106;-72
2021/04/26 10:33:00;;;;;;;11.48;6.45;;;;;;;9.80;31.87;98343.62;1819454;78;21087;-72
2021/04/26 10:35:44;;;;;;;10.90;6.03;;;;;;;9.77;32.71;98340.91;1819441;78;21162;-73
2021/04/26 10:38:46;;;;;;;9.23;5.90;;;;;;;8.55;34.04;98342.17;1797388;78;21059;-72
2021/04/26 10:41:10;;;;;;;8.55;5.03;;;;;;;8.72;35.13;98330.69;1818875;78;21427;-73
2021/04/26 10:43:37;;;;;;;9.73;4.92;;;;;;;8.80;34.00;98320.71;1819371;78;21133;-73
2021/04/26 10:46:19;;;;;;;12.78;5.35;;;;;;;8.50;33.58;98320.52;1819338;78;21038;-72
2021/04/26 10:49:09;;;;;;;9.53;5.22;;;;;;;8.88;33.54;98312.11;1819352;78;21133;-73
2021/04/26 10:51:37;;;;;;;12.07;5.60;;;;;;;8.59;32.83;98317.61;1819504;78;21460;-71
2021/04/26 10:54:03;;;;;;;9.18;5.05;;;;;;;8.59;32.83;98317.61;1819319;78;22055;-71
2021/04/26 10:56:31;;;;;;;9.98;5.12;;;;;;;8.73;32.79;98318.80;1819273;78;21038;-71
2021/04/26 10:59:21;;;;;;;9.03;5.10;;;;;;;8.55;32.92;98324.62;1819293;78;21165;-71
2021/04/26 11:01:53;;;;;;;8.38;4.97;;;;;;;8.82;33.71;98306.42;1819380;78;21038;-73
2021/04/26 11:04:19;;;;;;;9.28;4.58;;;;;;;8.78;33.29;98305.84;1818651;78;21451;-72
2021/04/26 11:07:16;;;;;;;9.00;4.42;;;;;;;8.93;33.85;98303.23;1819369;78;21188;-72
2021/04/26 11:09:42;;;;;;;12.18;4.70;;;;;;;9.29;34.07;98302.86;1819181;78;21126;-72
2021/04/26 11:12:32;;;;;;;7.90;4.58;;;;;;;8.95;34.65;98303.23;1819292;78;21023;-72
2021/04/26 11:15:18;;;;;;;8.08;4.30;;;;;;;8.88;34.11;98303.20;1818618;78;21019;-72
2021/04/26 11:17:45;;;;;;;8.30;4.95;;;;;;;8.56;33.24;98300.58;1819420;78;21133;-72
2021/04/26 11:20:15;;;;;;;9.23;4.92;;;;;;;8.63;32.92;98289.83;1794117;78;21251;-72
2021/04/26 11:22:41;;;;;;;6.20;3.77;;;;;;;8.61;33.03;98288.45;1819287;78;21105;-72
2021/04/26 11:25:08;;;;;;;9.08;4.10;;;;;;;8.70;33.39;98289.04;1819336;78;21090;-72
2021/04/26 11:27:36;;;;;;;9.23;3.83;;;;;;;9.00;32.99;98279.49;1819335;78;21523;-72
2021/04/26 11:30:08;;;;;;;6.78;3.80;;;;;;;8.42;33.38;98276.70;1819319;78;21046;-72
2021/04/26 11:32:34;;;;;;;8.38;3.70;;;;;;;8.42;33.38;98276.70;1819349;78;21164;-72
2021/04/26 11:35:07;;;;;;;9.75;4.75;;;;;;;8.52;33.80;98282.71;1819226;78;21035;-72